Time;durP1;ratioP1;P1;durP2;ratioP2;P2;SDS_P1;SDS_P2;PMS_P1;PMS_P2;Temp;Humidity;BMP_temperature;BMP_pressure;BME280_temperature;BME280_humidity;BME280_pressure;Samples;Min_cycle;Max_cycle;Signal;HPM_P1;HPM_P2
2021/12/12 00:00:44;;;;;;;3.78;2.13;;;9.60;99.90;;;;;;5114295;28;20032;-61
2021/12/12 00:03:31;;;;;;;5.03;2.42;;;9.60;99.90;;;;;;5113712;28;20549;-62
2021/12/12 00:06:03;;;;;;;3.10;2.17;;;9.60;99.90;;;;;;5113756;28;20491;-62
2021/12/12 00:08:31;;;;;;;4.82;1.83;;;9.60;99.90;;;;;;5095887;28;20126;-62
2021/12/12 00:11:04;;;;;;;4.43;2.58;;;9.60;99.90;;;;;;5096061;28;20455;-62
2021/12/12 00:13:38;;;;;;;3.03;1.42;;;9.60;99.90;;;;;;5111567;28;20039;-62
2021/12/12 00:16:07;;;;;;;3.60;1.73;;;9.60;99.90;;;;;;5079073;28;20040;-62
2021/12/12 00:18:36;;;;;;;3.13;2.00;;;9.60;99.90;;;;;;5108982;28;20028;-62
2021/12/12 00:21:06;;;;;;;3.33;1.45;;;9.60;99.90;;;;;;5100695;28;20069;-63
2021/12/12 00:23:34;;;;;;;4.80;1.90;;;9.60;99.90;;;;;;5093091;28;20373;-62
2021/12/12 00:26:04;;;;;;;3.88;1.65;;;9.60;99.90;;;;;;5096912;28;20061;-62
2021/12/12 00:28:32;;;;;;;3.90;2.35;;;9.60;99.90;;;;;;5096221;28;20058;-62
2021/12/12 00:31:08;;;;;;;8.50;2.70;;;9.60;99.90;;;;;;5105069;28;20036;-63
2021/12/12 00:33:42;;;;;;;4.03;1.77;;;9.60;99.90;;;;;;5108714;28;20032;-62
2021/12/12 00:36:14;;;;;;;2.55;1.55;;;9.60;99.90;;;;;;5092127;28;20426;-63
2021/12/12 00:38:41;;;;;;;5.07;1.60;;;9.60;99.90;;;;;;5104517;28;20035;-62
2021/12/12 00:41:11;;;;;;;2.78;1.63;;;9.60;99.90;;;;;;5095605;28;20043;-62
2021/12/12 00:43:45;;;;;;;3.55;1.95;;;9.60;99.90;;;;;;5094964;28;20053;-62
2021/12/12 00:46:14;;;;;;;8.05;2.10;;;9.60;99.90;;;;;;5075519;28;20044;-62
2021/12/12 00:48:44;;;;;;;2.83;1.90;;;9.60;99.90;;;;;;5089591;28;20058;-62
2021/12/12 00:51:15;;;;;;;5.57;1.77;;;9.70;99.90;;;;;;5114177;27;20047;-62
2021/12/12 00:53:44;;;;;;;3.40;1.80;;;9.70;99.90;;;;;;5110043;28;20023;-62
2021/12/12 00:56:12;;;;;;;7.60;2.10;;;9.60;99.90;;;;;;5073586;28;20355;-62
2021/12/12 00:58:40;;;;;;;3.47;2.15;;;9.70;99.90;;;;;;5094535;28;20425;-62
2021/12/12 01:01:22;;;;;;;5.88;1.80;;;9.70;99.90;;;;;;5094568;28;20459;-63
2021/12/12 01:03:55;;;;;;;3.05;1.98;;;9.70;99.90;;;;;;5094729;28;20036;-62
2021/12/12 01:06:24;;;;;;;3.40;2.20;;;9.70;99.90;;;;;;5076994;28;20063;-62
2021/12/12 01:08:53;;;;;;;2.70;1.88;;;9.70;99.90;;;;;;5086284;28;20555;-62
2021/12/12 01:11:49;;;;;;;5.68;2.13;;;9.70;99.90;;;;;;5076704;28;20034;-62
2021/12/12 01:14:21;;;;;;;5.47;2.67;;;9.80;99.90;;;;;;5057925;28;20059;-62
2021/12/12 01:16:55;;;;;;;3.10;1.75;;;9.80;99.90;;;;;;5059965;28;20085;-62
2021/12/12 01:19:30;;;;;;;5.40;1.63;;;9.80;99.90;;;;;;5076377;28;20134;-62
2021/12/12 01:22:07;;;;;;;4.78;1.90;;;9.80;99.90;;;;;;5087167;28;20474;-62
2021/12/12 01:24:39;;;;;;;2.00;1.40;;;9.90;99.90;;;;;;5076522;28;20036;-62
2021/12/12 01:27:08;;;;;;;4.35;2.47;;;9.90;99.90;;;;;;5076515;28;20493;-62
2021/12/12 01:29:37;;;;;;;3.22;1.85;;;9.90;99.90;;;;;;5076169;28;20426;-63
2021/12/12 01:32:12;;;;;;;6.05;1.58;;;9.90;99.90;;;;;;5076342;28;20044;-62
2021/12/12 01:34:40;;;;;;;2.88;1.33;;;9.90;99.90;;;;;;5076146;28;20044;-63
2021/12/12 01:39:55;;;;;;;2.75;1.40;;;10.00;99.90;;;;;;5059466;28;20046;-62
2021/12/12 01:42:30;;;;;;;4.65;1.70;;;9.90;99.90;;;;;;5075931;28;20035;-62
2021/12/12 01:45:20;;;;;;;1.67;0.93;;;10.00;99.90;;;;;;5086254;28;20067;-62
2021/12/12 01:47:57;;;;;;;2.20;1.40;;;10.00;99.90;;;;;;5076375;28;20044;-62
2021/12/12 01:50:28;;;;;;;2.15;1.33;;;10.00;99.90;;;;;;5075980;28;20075;-62
2021/12/12 01:52:57;;;;;;;3.15;1.15;;;9.90;99.90;;;;;;5075203;28;20389;-62
2021/12/12 01:55:58;;;;;;;2.20;1.38;;;9.90;99.90;;;;;;5075961;28;20450;-62
2021/12/12 01:58:30;;;;;;;1.23;0.88;;;9.90;99.90;;;;;;5055688;28;20097;-62
2021/12/12 02:01:04;;;;;;;1.58;1.13;;;9.80;99.90;;;;;;5075822;28;20043;-62
2021/12/12 02:03:35;;;;;;;2.72;1.55;;;9.80;99.90;;;;;;5075802;28;20417;-62
2021/12/12 02:06:07;;;;;;;2.75;1.02;;;9.90;99.90;;;;;;5093673;28;20044;-62
2021/12/12 02:08:36;;;;;;;3.22;0.90;;;9.80;99.90;;;;;;5093730;28;20036;-62
2021/12/12 02:11:10;;;;;;;4.05;1.67;;;9.90;99.90;;;;;;5075804;28;20048;-63
2021/12/12 02:13:51;;;;;;;4.00;1.38;;;9.90;99.90;;;;;;5058984;28;20048;-63
2021/12/12 02:16:22;;;;;;;1.52;1.00;;;9.80;99.90;;;;;;5093773;28;20377;-63
2021/12/12 02:18:54;;;;;;;1.77;1.17;;;9.80;99.90;;;;;;5093469;28;20032;-63
2021/12/12 02:21:29;;;;;;;1.52;0.90;;;9.70;99.90;;;;;;5075723;28;20043;-62
2021/12/12 02:35:44;;;;;;;3.88;0.80;;;9.60;99.90;;;;;;5075475;28;20044;-62
2021/12/12 02:38:20;;;;;;;1.95;0.80;;;9.60;99.90;;;;;;5093373;28;20449;-62
2021/12/12 02:40:52;;;;;;;2.97;1.33;;;9.60;99.90;;;;;;5093362;28;20040;-62
2021/12/12 02:43:22;;;;;;;4.78;1.45;;;9.60;99.90;;;;;;5093402;28;20036;-62
2021/12/12 02:45:54;;;;;;;1.77;1.42;;;9.50;99.90;;;;;;5075318;28;20044;-62
2021/12/12 02:48:34;;;;;;;1.45;0.98;;;9.60;99.90;;;;;;5058960;28;20156;-62
2021/12/12 02:51:07;;;;;;;5.00;1.23;;;9.50;99.90;;;;;;5075755;28;20055;-62
2021/12/12 02:53:42;;;;;;;2.00;1.25;;;9.50;99.90;;;;;;5075140;28;20055;-62
2021/12/12 02:56:16;;;;;;;1.55;0.85;;;9.50;99.90;;;;;;5093283;28;20036;-62
2021/12/12 02:58:46;;;;;;;2.90;0.90;;;9.50;99.90;;;;;;5075568;28;20056;-62
2021/12/12 03:01:51;;;;;;;2.88;0.82;;;9.50;99.90;;;;;;5075323;28;20038;-62
2021/12/12 03:04:20;;;;;;;1.75;1.10;;;9.50;99.90;;;;;;4994613;28;20101;-62
2021/12/12 03:06:48;;;;;;;1.35;0.90;;;9.50;99.90;;;;;;5072823;28;20048;-62
2021/12/12 03:09:18;;;;;;;0.98;0.70;;;9.50;99.90;;;;;;5078291;28;20036;-62
2021/12/12 03:11:49;;;;;;;1.48;0.82;;;9.50;99.90;;;;;;5078489;28;20089;-62
2021/12/12 03:14:17;;;;;;;4.15;1.20;;;9.50;99.90;;;;;;5079016;28;20072;-62
2021/12/12 03:16:47;;;;;;;1.73;1.30;;;9.50;99.90;;;;;;5096724;28;20028;-62
2021/12/12 03:19:19;;;;;;;2.38;1.33;;;9.40;99.90;;;;;;5061909;28;20040;-62
2021/12/12 03:21:48;;;;;;;2.22;1.20;;;9.40;99.90;;;;;;5096668;28;20078;-62
2021/12/12 03:24:20;;;;;;;2.17;1.40;;;9.40;99.90;;;;;;5096725;28;20040;-62
2021/12/12 03:26:51;;;;;;;1.63;1.00;;;9.40;99.90;;;;;;5096779;28;20377;-62
2021/12/12 03:29:19;;;;;;;3.80;1.90;;;9.40;99.90;;;;;;5078621;28;20046;-62
2021/12/12 03:31:50;;;;;;;3.60;1.88;;;9.40;99.90;;;;;;5096333;28;20131;-62
2021/12/12 03:34:22;;;;;;;2.67;1.52;;;9.40;99.90;;;;;;5078421;28;20032;-62
2021/12/12 03:36:51;;;;;;;2.90;1.50;;;9.40;99.90;;;;;;5078618;28;20048;-62
2021/12/12 03:39:26;;;;;;;2.72;1.20;;;9.30;99.90;;;;;;5061659;28;20048;-62
2021/12/12 03:41:56;;;;;;;2.35;1.00;;;9.30;99.90;;;;;;5078458;28;20044;-62
2021/12/12 03:44:28;;;;;;;3.22;1.13;;;9.30;99.90;;;;;;5096249;28;20046;-62
2021/12/12 03:47:00;;;;;;;2.20;0.85;;;9.30;99.90;;;;;;5096126;28;20097;-62
2021/12/12 03:49:28;;;;;;;2.03;0.73;;;9.30;99.90;;;;;;5096018;28;20056;-62
2021/12/12 03:51:56;;;;;;;2.45;0.95;;;9.30;99.90;;;;;;5061612;28;20040;-62
2021/12/12 03:54:23;;;;;;;1.08;0.57;;;9.30;99.90;;;;;;5061397;28;20115;-62
2021/12/12 03:56:51;;;;;;;1.13;0.82;;;9.30;99.90;;;;;;5061657;28;20050;-62
2021/12/12 03:59:18;;;;;;;0.73;0.70;;;9.30;99.90;;;;;;5095890;28;20119;-62
2021/12/12 04:01:49;;;;;;;1.08;0.77;;;9.30;99.90;;;;;;5095959;28;20455;-62
2021/12/12 04:04:21;;;;;;;0.98;0.80;;;9.30;99.90;;;;;;5061549;28;20040;-62
2021/12/12 04:06:50;;;;;;;0.68;0.50;;;9.30;99.90;;;;;;5095932;28;20040;-62
2021/12/12 04:09:19;;;;;;;1.02;0.68;;;9.30;99.90;;;;;;5057572;28;20068;-62
2021/12/12 04:11:54;;;;;;;1.00;0.60;;;9.30;99.90;;;;;;5077110;28;20035;-62
2021/12/12 04:14:23;;;;;;;1.60;1.13;;;9.30;99.90;;;;;;5094997;28;20038;-62
2021/12/12 04:16:58;;;;;;;2.90;1.00;;;9.30;99.90;;;;;;5095604;28;20040;-62
2021/12/12 04:19:26;;;;;;;2.10;0.90;;;9.20;99.90;;;;;;5077530;28;20125;-62
2021/12/12 04:21:54;;;;;;;1.23;0.70;;;9.20;99.90;;;;;;5060707;28;20044;-62
2021/12/12 04:24:26;;;;;;;4.43;1.00;;;9.20;99.90;;;;;;5077468;28;20432;-62
2021/12/12 04:26:54;;;;;;;1.52;0.70;;;9.20;99.90;;;;;;5077454;28;20084;-62
2021/12/12 04:29:35;;;;;;;0.93;0.73;;;9.20;99.90;;;;;;5077513;28;20105;-62
2021/12/12 04:32:12;;;;;;;1.30;0.98;;;9.20;99.90;;;;;;5077411;28;20078;-62
2021/12/12 04:34:44;;;;;;;1.20;0.73;;;9.20;99.90;;;;;;5095279;28;20040;-62
2021/12/12 04:37:12;;;;;;;1.95;1.02;;;9.20;99.90;;;;;;5077426;28;20036;-62
2021/12/12 04:39:47;;;;;;;4.65;1.70;;;9.20;99.90;;;;;;5060870;28;20056;-62
2021/12/12 04:42:18;;;;;;;2.72;1.40;;;9.20;99.90;;;;;;5095109;28;20040;-62
2021/12/12 04:44:48;;;;;;;2.05;1.15;;;9.10;99.90;;;;;;5095217;28;20161;-62
2021/12/12 04:50:29;;;;;;;1.95;1.08;;;9.10;99.90;;;;;;5094714;28;20493;-63
2021/12/12 04:53:12;;;;;;;1.50;1.15;;;9.10;99.90;;;;;;5060125;28;20093;-62
2021/12/12 04:56:02;;;;;;;2.08;1.27;;;9.10;99.90;;;;;;5094928;28;20042;-63
2021/12/12 04:58:44;;;;;;;3.83;2.45;;;9.10;99.90;;;;;;5077033;28;20067;-62
2021/12/12 05:01:38;;;;;;;4.72;2.30;;;9.10;99.90;;;;;;5094803;28;20042;-62
2021/12/12 05:04:20;;;;;;;4.15;1.73;;;9.10;99.90;;;;;;5073747;28;20040;-62
2021/12/12 05:07:01;;;;;;;4.28;2.10;;;9.10;99.90;;;;;;5076711;28;20055;-62
2021/12/12 05:09:50;;;;;;;4.07;1.85;;;9.20;99.90;;;;;;5076873;28;20040;-62
2021/12/12 05:12:39;;;;;;;1.98;1.30;;;9.20;99.90;;;;;;5076718;28;20115;-62
2021/12/12 05:15:21;;;;;;;6.65;1.42;;;9.20;99.90;;;;;;5096304;28;20149;-62
2021/12/12 05:17:58;;;;;;;2.58;1.48;;;9.20;99.90;;;;;;5090575;28;20058;-62
2021/12/12 05:20:42;;;;;;;2.20;1.33;;;9.30;99.90;;;;;;5106409;28;20042;-62
2021/12/12 05:23:14;;;;;;;4.28;1.83;;;9.30;99.90;;;;;;5103428;28;20067;-62
2021/12/12 05:25:57;;;;;;;3.85;1.98;;;9.30;99.90;;;;;;5099367;28;20031;-63
2021/12/12 05:28:31;;;;;;;3.70;1.48;;;9.40;99.90;;;;;;5089769;28;20122;-62
2021/12/12 05:31:00;;;;;;;4.20;1.70;;;9.40;99.90;;;;;;5073664;28;20149;-63
2021/12/12 05:33:30;;;;;;;3.00;1.70;;;9.40;99.90;;;;;;5109797;28;20032;-63
2021/12/12 05:35:59;;;;;;;2.28;1.33;;;9.50;99.90;;;;;;5102205;28;20035;-62
2021/12/12 05:38:29;;;;;;;5.22;2.10;;;9.50;99.90;;;;;;5095377;28;20030;-62
2021/12/12 05:40:57;;;;;;;3.40;2.20;;;9.40;99.90;;;;;;5094619;28;20432;-62
2021/12/12 05:43:25;;;;;;;3.38;2.47;;;9.40;99.90;;;;;;5104748;28;20130;-62
2021/12/12 05:45:53;;;;;;;3.65;1.75;;;9.40;99.90;;;;;;5107634;28;20485;-63
2021/12/12 05:48:22;;;;;;;4.65;2.50;;;9.40;99.90;;;;;;5089093;28;20101;-62
2021/12/12 05:50:51;;;;;;;3.70;2.35;;;9.40;99.90;;;;;;5084869;28;20393;-62
2021/12/12 05:53:21;;;;;;;3.28;1.80;;;9.50;99.90;;;;;;5075054;28;20118;-62
2021/12/12 05:55:50;;;;;;;3.10;2.22;;;9.40;99.90;;;;;;5075443;28;20516;-62
2021/12/12 05:58:21;;;;;;;4.18;1.92;;;9.40;99.90;;;;;;5093802;28;20063;-62
2021/12/12 06:00:54;;;;;;;3.53;1.58;;;9.50;99.90;;;;;;5092615;28;20036;-62
2021/12/12 06:03:26;;;;;;;3.55;1.60;;;9.50;99.90;;;;;;5093720;28;20040;-62
2021/12/12 06:05:55;;;;;;;3.05;2.17;;;9.50;99.90;;;;;;5072550;28;20131;-62
2021/12/12 06:08:25;;;;;;;4.63;1.30;;;9.50;99.90;;;;;;5055902;28;20064;-62
2021/12/12 06:10:54;;;;;;;2.15;1.30;;;9.50;99.90;;;;;;5047800;28;20448;-62
2021/12/12 06:13:24;;;;;;;2.45;1.10;;;9.50;99.90;;;;;;5072471;28;20060;-62
2021/12/12 06:15:54;;;;;;;5.45;1.00;;;9.60;99.90;;;;;;5072491;28;20483;-62
2021/12/12 06:18:24;;;;;;;6.57;1.15;;;9.60;99.90;;;;;;5089508;28;20050;-62
2021/12/12 06:20:53;;;;;;;1.30;0.90;;;9.60;99.90;;;;;;5075527;28;20474;-62
2021/12/12 06:23:22;;;;;;;2.42;1.25;;;9.70;99.90;;;;;;5075509;28;20470;-63
2021/12/12 06:25:50;;;;;;;1.52;0.80;;;9.80;99.90;;;;;;5093567;28;20047;-62
2021/12/12 06:28:31;;;;;;;4.03;1.35;;;10.20;99.90;;;;;;5093419;28;20042;-62
2021/12/12 06:30:59;;;;;;;1.27;0.93;;;11.00;99.90;;;;;;5075624;28;20551;-62
2021/12/12 06:33:28;;;;;;;1.60;0.88;;;11.90;99.90;;;;;;5093452;28;20123;-62
2021/12/12 06:35:57;;;;;;;1.83;1.10;;;12.80;99.90;;;;;;5075815;28;20068;-63
2021/12/12 06:38:26;;;;;;;1.55;0.90;;;13.00;99.90;;;;;;5094958;28;20036;-63
2021/12/12 06:40:54;;;;;;;2.65;1.67;;;12.70;99.90;;;;;;5079567;28;20078;-63
2021/12/12 06:43:23;;;;;;;2.50;1.58;;;12.30;99.90;;;;;;5097506;28;20032;-62
2021/12/12 06:45:51;;;;;;;3.30;1.60;;;11.90;99.90;;;;;;5079470;28;20052;-62
2021/12/12 06:48:19;;;;;;;4.20;2.45;;;11.60;99.90;;;;;;5097289;28;20054;-63
2021/12/12 06:50:52;;;;;;;5.03;3.17;;;11.30;99.90;;;;;;5097212;28;20056;-62
2021/12/12 06:53:22;;;;;;;3.30;2.97;;;11.00;99.90;;;;;;5096323;28;20028;-62
2021/12/12 06:55:50;;;;;;;4.72;3.13;;;10.90;99.90;;;;;;5062838;28;20383;-62
2021/12/12 06:58:20;;;;;;;7.22;3.97;;;10.80;99.90;;;;;;5097309;28;20102;-62
2021/12/12 07:00:53;;;;;;;4.53;3.28;;;10.70;99.90;;;;;;5079069;28;20043;-62
2021/12/12 07:03:21;;;;;;;6.38;3.50;;;10.60;99.90;;;;;;5095823;28;20543;-62
2021/12/12 07:05:49;;;;;;;6.93;3.03;;;10.80;99.90;;;;;;5096992;28;20063;-62
2021/12/12 07:08:21;;;;;;;4.30;2.40;;;11.20;99.90;;;;;;5097084;28;20032;-62
2021/12/12 07:10:49;;;;;;;4.22;2.55;;;11.40;99.90;;;;;;5097073;28;20492;-62
2021/12/12 07:13:18;;;;;;;6.47;2.50;;;11.50;99.90;;;;;;5078759;28;20044;-63
2021/12/12 07:15:50;;;;;;;3.50;2.47;;;11.50;99.90;;;;;;5078173;28;20054;-62
2021/12/12 07:18:20;;;;;;;3.22;2.20;;;11.50;99.90;;;;;;5078642;28;20362;-62
2021/12/12 07:20:51;;;;;;;3.85;2.42;;;11.50;99.90;;;;;;5061955;28;20044;-62
2021/12/12 07:23:19;;;;;;;4.13;2.75;;;11.60;99.90;;;;;;5062480;28;20408;-62
2021/12/12 07:25:47;;;;;;;5.68;3.40;;;11.70;99.90;;;;;;5097069;28;20036;-62
2021/12/12 07:28:16;;;;;;;4.38;3.47;;;11.90;99.90;;;;;;5096557;28;20397;-62
2021/12/12 07:30:44;;;;;;;4.25;2.70;;;12.00;99.90;;;;;;5096496;28;20036;-62
2021/12/12 07:33:13;;;;;;;3.78;2.70;;;12.00;99.90;;;;;;5096662;28;20036;-62
2021/12/12 07:35:43;;;;;;;3.92;2.03;;;11.90;99.90;;;;;;5078667;28;20048;-62
2021/12/12 07:38:14;;;;;;;2.72;2.10;;;11.80;99.90;;;;;;5062111;28;20158;-62
2021/12/12 07:40:45;;;;;;;4.03;2.92;;;11.70;99.90;;;;;;5078251;28;20040;-63
2021/12/12 07:43:13;;;;;;;5.53;3.72;;;11.50;99.90;;;;;;5058692;28;20048;-62
2021/12/12 07:45:41;;;;;;;5.88;2.80;;;11.40;99.90;;;;;;5094650;28;20040;-63
2021/12/12 07:48:11;;;;;;;3.78;2.50;;;11.20;99.90;;;;;;5096164;28;20473;-62
2021/12/12 07:50:40;;;;;;;3.40;2.50;;;11.10;99.90;;;;;;5094760;28;20055;-61
2021/12/12 07:53:09;;;;;;;3.97;2.38;;;11.00;99.90;;;;;;5096068;28;20086;-62
2021/12/12 07:55:38;;;;;;;4.18;1.48;;;10.90;99.90;;;;;;5095991;28;20040;-61
2021/12/12 07:58:11;;;;;;;5.47;1.73;;;10.80;99.90;;;;;;5074653;28;20071;-61
2021/12/12 08:00:46;;;;;;;5.05;2.22;;;10.70;99.90;;;;;;5094220;28;20027;-61
2021/12/12 08:03:16;;;;;;;3.67;1.80;;;10.70;99.90;;;;;;5078143;28;20370;-61
2021/12/12 08:05:44;;;;;;;6.55;2.67;;;10.60;99.90;;;;;;5095910;28;20105;-61
2021/12/12 08:08:12;;;;;;;4.43;1.60;;;10.60;99.90;;;;;;5095645;28;20032;-61
2021/12/12 08:10:43;;;;;;;7.70;3.30;;;10.60;99.90;;;;;;5095734;28;20097;-61
2021/12/12 08:13:14;;;;;;;3.90;1.75;;;10.60;99.90;;;;;;5095961;28;20040;-61
2021/12/12 08:15:43;;;;;;;2.65;1.85;;;10.50;99.90;;;;;;5077556;28;20040;-61
2021/12/12 08:18:15;;;;;;;6.30;2.33;;;10.50;99.90;;;;;;5095495;28;20043;-61
2021/12/12 08:20:48;;;;;;;5.72;1.70;;;10.40;99.90;;;;;;5077583;28;20367;-61
2021/12/12 08:23:17;;;;;;;2.85;1.48;;;10.40;99.90;;;;;;5095424;28;20085;-61
2021/12/12 08:25:46;;;;;;;6.85;1.70;;;10.30;99.90;;;;;;5077529;28;20036;-61
2021/12/12 08:28:15;;;;;;;5.80;2.85;;;10.30;99.90;;;;;;5060834;28;20051;-61
2021/12/12 08:30:44;;;;;;;3.40;1.70;;;10.30;99.90;;;;;;5077474;28;20047;-61
2021/12/12 08:33:12;;;;;;;3.50;1.65;;;10.40;99.90;;;;;;5095203;28;20040;-61
2021/12/12 08:35:42;;;;;;;2.40;1.55;;;10.40;99.90;;;;;;5077168;28;20498;-62
2021/12/12 08:38:12;;;;;;;2.38;1.20;;;10.40;99.90;;;;;;5095186;28;20032;-61
2021/12/12 08:40:47;;;;;;;4.10;1.83;;;10.50;99.90;;;;;;5095241;28;20040;-61
2021/12/12 08:43:16;;;;;;;4.38;2.17;;;10.50;99.90;;;;;;5076621;28;20412;-61
2021/12/12 08:45:49;;;;;;;8.30;3.05;;;10.60;99.90;;;;;;5094850;28;20046;-61
2021/12/12 08:48:20;;;;;;;2.85;1.83;;;10.60;99.90;;;;;;5060578;28;20135;-62
2021/12/12 08:50:56;;;;;;;4.18;2.63;;;10.70;99.90;;;;;;5095446;28;20040;-61
2021/12/12 08:53:24;;;;;;;4.55;1.63;;;10.60;99.90;;;;;;5094796;28;20420;-61
2021/12/12 08:55:55;;;;;;;5.88;1.90;;;10.60;99.90;;;;;;5076812;28;20044;-61
2021/12/12 08:58:26;;;;;;;4.07;1.83;;;10.60;99.90;;;;;;5056835;28;20056;-61
2021/12/12 09:00:57;;;;;;;5.93;2.10;;;10.60;99.90;;;;;;5086360;28;20067;-61
2021/12/12 09:03:45;;;;;;;3.38;1.92;;;10.60;99.90;;;;;;5093756;28;20035;-61
2021/12/12 09:06:16;;;;;;;4.43;1.90;;;10.60;99.90;;;;;;5078766;28;20052;-61
2021/12/12 09:08:52;;;;;;;4.07;2.85;;;10.60;99.90;;;;;;5075718;28;20060;-61
2021/12/12 09:11:46;;;;;;;3.55;1.63;;;10.60;99.90;;;;;;5094588;28;20047;-61
2021/12/12 09:14:29;;;;;;;3.58;1.80;;;10.60;99.90;;;;;;5052059;28;20475;-61
2021/12/12 09:17:02;;;;;;;3.88;1.52;;;10.60;99.90;;;;;;5087145;28;20032;-61
2021/12/12 09:19:45;;;;;;;4.00;1.60;;;10.60;99.90;;;;;;5094441;28;20492;-61
2021/12/12 09:22:26;;;;;;;2.22;1.52;;;10.60;99.90;;;;;;5076313;28;20043;-61
2021/12/12 09:25:10;;;;;;;10.48;5.32;;;10.50;99.90;;;;;;5076581;28;20043;-61
2021/12/12 09:27:45;;;;;;;5.65;2.30;;;10.50;99.90;;;;;;5093092;28;20038;-61
2021/12/12 09:30:14;;;;;;;4.22;1.83;;;10.40;99.90;;;;;;5094173;28;20093;-61
2021/12/12 09:32:51;;;;;;;5.25;2.28;;;10.40;99.90;;;;;;5076380;28;20051;-61
2021/12/12 09:35:22;;;;;;;4.95;2.30;;;10.40;99.90;;;;;;5094301;28;20089;-62
2021/12/12 09:38:04;;;;;;;4.78;2.90;;;10.40;99.90;;;;;;5094303;28;20036;-61
2021/12/12 09:41:00;;;;;;;3.08;2.10;;;10.40;99.90;;;;;;5094121;28;20040;-61
2021/12/12 09:43:59;;;;;;;13.40;7.00;;;10.50;99.90;;;;;;5094106;28;20042;-61
2021/12/12 09:46:44;;;;;;;24.00;11.27;;;10.50;99.90;;;;;;5093897;28;20507;-61
2021/12/12 09:52:47;;;;;;;11.40;7.60;;;10.50;99.90;;;;;;5093987;28;20359;-61
2021/12/12 09:55:25;;;;;;;6.20;3.40;;;10.50;99.90;;;;;;5076224;28;20039;-61
2021/12/12 09:57:59;;;;;;;3.60;1.85;;;10.50;99.90;;;;;;5076147;28;20070;-61
2021/12/12 10:00:40;;;;;;;2.40;1.10;;;10.50;99.90;;;;;;5094001;28;20097;-61
2021/12/12 10:03:14;;;;;;;4.88;2.00;;;10.50;99.90;;;;;;5066343;28;20064;-61
2021/12/12 10:06:10;;;;;;;4.43;2.90;;;10.50;99.90;;;;;;5074376;28;20055;-61
2021/12/12 10:08:50;;;;;;;5.73;3.30;;;10.60;99.90;;;;;;5057680;28;20060;-61
2021/12/12 10:11:23;;;;;;;7.05;3.88;;;10.70;99.90;;;;;;5093796;28;20266;-61
2021/12/12 10:14:11;;;;;;;4.32;2.40;;;10.80;99.90;;;;;;5071645;28;20486;-61
2021/12/12 10:16:54;;;;;;;3.70;1.98;;;10.90;99.90;;;;;;5091956;28;20036;-61
2021/12/12 10:19:43;;;;;;;1.60;1.50;;;10.90;99.90;;;;;;5075886;28;20105;-62
2021/12/12 10:22:35;;;;;;;2.53;1.40;;;10.90;99.90;;;;;;5075674;28;20071;-62
2021/12/12 10:25:46;;;;;;;2.33;1.40;;;10.90;99.90;;;;;;5093805;28;20043;-61
2021/12/12 10:28:27;;;;;;;3.55;1.30;;;11.00;99.90;;;;;;5038359;28;20036;-61
2021/12/12 10:31:02;;;;;;;1.60;1.13;;;11.10;99.90;;;;;;5050766;28;20047;-62
2021/12/12 10:33:39;;;;;;;2.63;1.20;;;11.10;99.90;;;;;;5093414;28;20550;-62
2021/12/12 10:36:13;;;;;;;3.58;1.50;;;11.10;99.90;;;;;;5093677;28;20050;-61
2021/12/12 10:39:05;;;;;;;3.97;1.50;;;11.10;99.90;;;;;;5093908;28;20050;-61
2021/12/12 10:41:42;;;;;;;4.55;2.20;;;11.10;99.90;;;;;;5093399;28;20044;-62
2021/12/12 10:44:39;;;;;;;3.80;2.97;;;11.10;99.90;;;;;;5058864;28;20042;-62
2021/12/12 10:47:13;;;;;;;2.50;1.60;;;11.00;99.90;;;;;;5059618;28;20128;-61
2021/12/12 10:49:56;;;;;;;2.10;1.40;;;11.00;99.90;;;;;;5056993;28;20084;-62
2021/12/12 10:52:45;;;;;;;1.63;1.05;;;11.00;99.90;;;;;;5093381;28;20044;-61
2021/12/12 10:55:23;;;;;;;2.50;1.58;;;10.90;99.90;;;;;;5093451;28;20028;-61
2021/12/12 10:58:07;;;;;;;3.63;2.10;;;10.90;99.90;;;;;;5093322;28;20059;-62
2021/12/12 11:00:43;;;;;;;3.90;1.50;;;10.90;99.90;;;;;;5093360;28;20032;-62
2021/12/12 11:03:22;;;;;;;2.17;1.20;;;10.90;99.90;;;;;;5058678;28;20105;-62
2021/12/12 11:06:39;;;;;;;5.93;2.28;;;10.90;99.90;;;;;;5075481;28;20047;-61
2021/12/12 11:09:29;;;;;;;3.78;1.38;;;11.00;99.90;;;;;;4991610;28;20425;-61
2021/12/12 11:12:18;;;;;;;4.15;2.58;;;11.00;99.90;;;;;;4991676;28;20082;-61
2021/12/12 11:14:48;;;;;;;3.85;1.92;;;11.10;99.90;;;;;;5073308;28;20040;-61
2021/12/12 11:17:27;;;;;;;4.05;2.40;;;11.10;99.90;;;;;;5071695;28;20382;-62
2021/12/12 11:20:18;;;;;;;9.13;2.47;;;10.90;99.90;;;;;;5085187;28;20032;-61
2021/12/12 11:22:57;;;;;;;4.80;2.33;;;10.80;99.90;;;;;;5075122;28;20031;-62
2021/12/12 11:25:31;;;;;;;6.40;3.72;;;10.90;99.90;;;;;;5078011;28;20079;-61
2021/12/12 11:28:27;;;;;;;8.52;3.30;;;10.90;99.90;;;;;;5075463;28;20040;-62
2021/12/12 11:31:11;;;;;;;5.30;2.00;;;11.00;99.90;;;;;;5088663;28;20036;-61
2021/12/12 11:33:42;;;;;;;4.03;2.60;;;11.00;99.90;;;;;;5096190;28;20043;-62
2021/12/12 11:36:14;;;;;;;6.72;2.35;;;10.90;99.90;;;;;;5081931;28;20424;-62
2021/12/12 11:38:51;;;;;;;5.53;2.45;;;10.90;99.90;;;;;;5097516;28;20058;-62
2021/12/12 11:41:55;;;;;;;6.75;2.22;;;10.90;99.90;;;;;;5086325;28;20549;-61
2021/12/12 11:44:32;;;;;;;4.63;2.38;;;10.80;99.90;;;;;;5069497;28;20488;-62
2021/12/12 11:47:46;;;;;;;5.30;2.58;;;10.80;99.90;;;;;;5092485;28;20059;-61
2021/12/12 11:50:38;;;;;;;3.95;2.63;;;10.80;99.90;;;;;;5075944;28;20556;-62
2021/12/12 11:53:30;;;;;;;5.40;3.05;;;10.80;99.90;;;;;;5077418;28;20032;-61
2021/12/12 11:56:06;;;;;;;14.38;5.82;;;10.80;99.90;;;;;;5077717;28;20470;-61
2021/12/12 11:58:39;;;;;;;10.45;5.30;;;10.80;99.90;;;;;;5096010;28;20036;-61
2021/12/12 12:01:29;;;;;;;9.15;4.47;;;10.70;99.90;;;;;;5078196;28;20094;-61
2021/12/12 12:04:17;;;;;;;7.72;3.50;;;10.80;99.90;;;;;;5095916;28;20466;-61
2021/12/12 12:07:03;;;;;;;5.18;2.75;;;10.80;99.90;;;;;;5078232;28;20055;-61
2021/12/12 12:09:52;;;;;;;5.40;2.65;;;10.80;99.90;;;;;;5078043;28;20101;-61
2021/12/12 12:12:38;;;;;;;6.72;3.10;;;10.80;99.90;;;;;;5095937;28;20048;-61
2021/12/12 12:15:16;;;;;;;7.45;3.58;;;10.80;99.90;;;;;;5077963;28;20059;-61
2021/12/12 12:18:28;;;;;;;5.30;2.08;;;10.90;99.90;;;;;;5060821;28;20048;-61
2021/12/12 12:21:16;;;;;;;5.30;1.90;;;10.90;99.90;;;;;;5095671;28;20407;-61
2021/12/12 12:24:17;;;;;;;4.38;2.13;;;11.00;99.90;;;;;;5077381;28;20072;-61
2021/12/12 12:27:05;;;;;;;2.67;1.63;;;11.00;99.90;;;;;;5095366;28;20035;-62
2021/12/12 12:30:03;;;;;;;6.50;3.10;;;11.10;99.90;;;;;;5060899;28;20048;-62
2021/12/12 12:33:02;;;;;;;6.85;3.15;;;11.10;99.90;;;;;;5066803;28;20078;-61
2021/12/12 12:36:07;;;;;;;4.22;2.45;;;11.10;99.90;;;;;;5059844;28;20044;-61
2021/12/12 12:39:12;;;;;;;5.35;2.25;;;11.20;99.90;;;;;;5077077;28;20040;-62
2021/12/12 12:41:45;;;;;;;3.83;2.10;;;11.20;99.90;;;;;;5077399;28;20044;-60
2021/12/12 12:44:50;;;;;;;4.40;1.98;;;11.20;99.90;;;;;;5077213;28;20040;-61
2021/12/12 12:47:52;;;;;;;4.03;2.15;;;11.20;99.90;;;;;;5094621;28;20043;-61
2021/12/12 12:50:31;;;;;;;3.92;2.30;;;11.20;99.90;;;;;;5105876;28;20043;-62
2021/12/12 12:53:08;;;;;;;4.82;2.72;;;11.20;99.90;;;;;;5115563;28;20122;-63
2021/12/12 12:55:39;;;;;;;;;;;11.20;99.90;;;;;;5096940;28;20142;-63
2021/12/12 12:58:15;;;;;;;3.38;2.03;;;11.20;99.90;;;;;;5097062;28;20365;-63
2021/12/12 13:00:47;;;;;;;5.25;2.10;;;11.20;99.90;;;;;;5096734;28;20477;-62
2021/12/12 13:03:27;;;;;;;5.45;3.03;;;11.20;99.90;;;;;;5114715;28;20122;-62
2021/12/12 13:06:09;;;;;;;5.30;2.22;;;11.30;99.90;;;;;;5096846;28;20032;-62
2021/12/12 13:09:10;;;;;;;5.45;2.42;;;11.20;99.90;;;;;;5115028;28;20031;-62
2021/12/12 13:12:00;;;;;;;4.78;2.55;;;11.30;99.90;;;;;;5080010;28;20048;-63
2021/12/12 13:15:06;;;;;;;6.43;2.50;;;11.30;99.90;;;;;;5096708;28;20078;-62
2021/12/12 13:18:17;;;;;;;9.93;3.60;;;11.30;99.90;;;;;;5067964;28;20052;-62
2021/12/12 13:21:22;;;;;;;5.03;1.60;;;11.30;99.90;;;;;;5079207;28;20359;-62
2021/12/12 13:24:27;;;;;;;3.63;1.73;;;11.20;99.90;;;;;;5114560;28;20038;-63
2021/12/12 13:27:31;;;;;;;10.77;1.92;;;11.20;99.90;;;;;;5062842;28;20131;-62
2021/12/12 13:30:05;;;;;;;3.25;1.80;;;11.20;99.90;;;;;;5114510;28;20036;-62
2021/12/12 13:32:51;;;;;;;3.00;1.83;;;11.10;99.90;;;;;;5114916;28;20047;-62
2021/12/12 13:35:39;;;;;;;6.32;2.38;;;11.10;99.90;;;;;;5096438;28;20039;-63
2021/12/12 13:38:25;;;;;;;6.38;3.90;;;11.00;99.90;;;;;;5096552;28;20043;-63
2021/12/12 13:41:27;;;;;;;7.22;4.32;;;11.00;99.90;;;;;;5114479;28;20035;-63
2021/12/12 13:44:29;;;;;;;8.15;3.47;;;11.00;99.90;;;;;;5095923;28;20031;-63
2021/12/12 13:47:16;;;;;;;4.97;2.67;;;11.00;99.90;;;;;;5113852;28;20496;-63
2021/12/12 13:50:05;;;;;;;8.48;2.72;;;10.90;99.90;;;;;;5078931;28;20058;-63
2021/12/12 13:53:09;;;;;;;3.85;2.38;;;10.90;99.90;;;;;;5095972;28;20048;-63
2021/12/12 13:56:05;;;;;;;4.30;2.55;;;10.90;99.90;;;;;;5078453;28;20043;-63
2021/12/12 13:59:13;;;;;;;13.52;5.68;;;10.80;99.90;;;;;;5113661;28;20038;-63
2021/12/12 14:01:52;;;;;;;9.90;5.35;;;10.80;99.90;;;;;;5068539;28;20077;-63